createdAt,value
2023-01-13T00:03:54.926Z,91.56
2023-01-13T00:06:53.265Z,91.06
2023-01-13T00:09:31.213Z,91.39
2023-01-13T00:12:22.488Z,90.43
2023-01-13T00:15:21.771Z,90.79
2023-01-13T00:18:16.657Z,91.19
2023-01-13T00:21:13.250Z,90.61
2023-01-13T00:24:09.698Z,90.12
2023-01-13T00:26:41.127Z,90.06
2023-01-13T00:29:12.014Z,89.79
2023-01-13T00:32:08.154Z,89.31
2023-01-13T00:34:51.044Z,88.76
2023-01-13T00:37:30.538Z,88.88
2023-01-13T00:40:18.428Z,88.53
2023-01-13T00:45:52.845Z,88.44
2023-01-13T00:48:40.807Z,89.19
2023-01-13T00:51:15.842Z,88.17
2023-01-13T00:53:51.356Z,87.71
2023-01-13T00:56:39.757Z,87.61
2023-01-13T00:59:16.253Z,88.17
2023-01-13T01:02:03.606Z,87.72
2023-01-13T01:04:51.959Z,87.56
2023-01-13T01:07:25.361Z,87.50
2023-01-13T01:10:04.688Z,86.77
2023-01-13T01:12:40.625Z,87.89
2023-01-13T01:15:17.924Z,87.20
2023-01-13T01:17:49.476Z,87.95
2023-01-13T01:20:36.744Z,87.48
2023-01-13T01:23:07.902Z,86.88
2023-01-13T01:28:21.727Z,86.83
2023-01-13T01:31:10.403Z,86.46
2023-01-13T01:33:48.664Z,87.49
2023-01-13T01:36:26.780Z,86.36
2023-01-13T01:38:59.077Z,86.79
2023-01-13T01:41:34.258Z,85.86
2023-01-13T01:44:09.869Z,86.02
2023-01-13T01:46:44.757Z,85.91
2023-01-13T01:49:25.948Z,86.00
2023-01-13T01:52:16.695Z,85.96
2023-01-13T01:55:05.365Z,86.06
2023-01-13T01:57:47.295Z,85.85
2023-01-13T02:00:37.302Z,85.84
2023-01-13T02:09:24.127Z,86.12
2023-01-13T02:12:15.657Z,86.48
2023-01-13T02:14:50.712Z,86.03
2023-01-13T02:17:44.741Z,86.39
2023-01-13T02:21:32.032Z,86.00
2023-01-13T02:25:06.469Z,86.21
2023-01-13T02:28:00.908Z,85.48
2023-01-13T02:31:13.976Z,85.73
2023-01-13T02:34:11.555Z,85.46
2023-01-13T02:36:52.680Z,85.09
2023-01-13T02:39:51.617Z,85.89
2023-01-13T02:42:51.539Z,85.49
2023-01-13T02:48:34.412Z,85.87
2023-01-13T02:51:19.840Z,85.43
2023-01-13T02:54:21.873Z,85.93
2023-01-13T02:57:04.292Z,85.68
2023-01-13T02:59:42.231Z,85.78
2023-01-13T03:02:18.726Z,85.76
2023-01-13T03:05:05.870Z,85.97
2023-01-13T03:08:30.737Z,86.01
2023-01-13T03:11:17.143Z,85.48
2023-01-13T03:14:40.247Z,86.18
2023-01-13T03:17:25.901Z,85.45
2023-01-13T03:20:08.603Z,85.65
2023-01-13T03:23:08.073Z,86.23
2023-01-13T03:25:53.551Z,85.55
2023-01-13T03:28:30.035Z,85.80
2023-01-13T03:31:27.627Z,86.19
2023-01-13T03:34:07.553Z,86.37
2023-01-13T03:36:40.859Z,85.71
2023-01-13T03:39:56.638Z,86.29
2023-01-13T03:42:31.787Z,86.77
2023-01-13T03:45:10.287Z,86.59
2023-01-13T03:48:02.244Z,86.67
2023-01-13T03:50:39.876Z,86.04
2023-01-13T03:56:23.013Z,86.44
2023-01-13T03:59:06.076Z,86.78
2023-01-13T04:02:19.298Z,87.36
2023-01-13T04:05:05.500Z,87.44
2023-01-13T04:07:50.422Z,87.75
2023-01-13T04:10:37.729Z,87.47
2023-01-13T04:13:21.599Z,87.58
2023-01-13T04:16:06.459Z,87.13
2023-01-13T04:18:43.532Z,87.41
2023-01-13T04:21:15.519Z,87.31
2023-01-13T04:23:46.914Z,87.56
2023-01-13T04:26:50.255Z,87.14
2023-01-13T04:29:20.941Z,87.39
2023-01-13T04:31:52.017Z,87.47
2023-01-13T04:34:20.771Z,87.42
2023-01-13T04:36:49.653Z,87.66
2023-01-13T04:39:26.261Z,87.62
2023-01-13T04:42:15.028Z,86.93
2023-01-13T04:44:46.313Z,87.89
2023-01-13T04:47:17.460Z,87.08
2023-01-13T04:49:46.184Z,87.20
2023-01-13T04:52:17.632Z,86.98
2023-01-13T04:54:46.460Z,87.15
2023-01-13T04:57:16.565Z,87.08
2023-01-13T04:59:45.266Z,87.11
2023-01-13T05:02:19.884Z,86.99
2023-01-13T05:04:49.288Z,87.50
2023-01-13T05:08:28.388Z,86.84
2023-01-13T05:14:25.799Z,86.37
2023-01-13T05:17:04.451Z,86.49
2023-01-13T05:19:39.373Z,86.38
2023-01-13T05:22:26.082Z,86.47
2023-01-13T05:25:15.460Z,86.35
2023-01-13T05:27:49.791Z,85.99
2023-01-13T05:30:22.512Z,85.56
2023-01-13T05:32:51.301Z,85.82
2023-01-13T05:35:22.425Z,86.09
2023-01-13T05:37:51.571Z,85.85
2023-01-13T05:40:38.668Z,85.27
2023-01-13T05:43:24.908Z,85.84
2023-01-13T05:46:08.627Z,85.29
2023-01-13T05:48:41.659Z,85.25
2023-01-13T05:51:46.557Z,85.21
2023-01-13T05:54:29.978Z,85.44
2023-01-13T05:57:00.076Z,85.21
2023-01-13T05:59:29.799Z,85.12
2023-01-13T06:01:59.835Z,84.56
2023-01-13T06:07:27.421Z,84.78
2023-01-13T06:10:00.467Z,85.10
2023-01-13T06:12:32.246Z,84.89
2023-01-13T06:15:01.421Z,84.84
2023-01-13T06:17:37.563Z,84.49
2023-01-13T06:20:09.811Z,84.17
2023-01-13T06:22:55.873Z,84.42
2023-01-13T06:25:41.613Z,84.66
2023-01-13T06:33:53.538Z,84.21
2023-01-13T06:36:30.563Z,84.49
2023-01-13T06:39:07.168Z,84.69
2023-01-13T06:41:54.532Z,83.62
2023-01-13T06:44:25.175Z,84.18
2023-01-13T06:46:54.233Z,83.65
2023-01-13T06:49:24.257Z,84.16
2023-01-13T06:51:55.852Z,84.04
2023-01-13T06:54:27.711Z,84.28
2023-01-13T06:57:15.965Z,83.88
2023-01-13T06:59:45.085Z,84.33
2023-01-13T07:02:14.000Z,83.98
2023-01-13T07:05:00.731Z,84.29
2023-01-13T07:07:45.844Z,83.81
2023-01-13T07:10:27.196Z,83.73
2023-01-13T07:13:25.659Z,83.67
2023-01-13T07:19:02.359Z,84.51
2023-01-13T07:21:39.231Z,83.12
2023-01-13T07:26:56.782Z,84.36
2023-01-13T07:29:30.564Z,84.53
2023-01-13T07:32:02.347Z,84.52
2023-01-13T07:34:31.489Z,84.91
2023-01-13T07:37:03.585Z,85.05
2023-01-13T07:39:35.237Z,85.60
2023-01-13T07:42:21.476Z,86.55
2023-01-13T07:45:12.376Z,86.19
2023-01-13T07:48:27.150Z,86.71
2023-01-13T07:51:26.919Z,86.41
2023-01-13T07:54:02.144Z,87.62
2023-01-13T07:56:30.937Z,88.19
2023-01-13T07:59:16.573Z,87.52
2023-01-13T08:01:55.420Z,88.18
2023-01-13T08:04:24.536Z,88.25
2023-01-13T08:06:53.366Z,88.63
2023-01-13T08:09:37.469Z,89.27
2023-01-13T08:12:52.220Z,88.59
2023-01-13T08:15:35.941Z,89.14
2023-01-13T08:18:05.998Z,88.80
2023-01-13T08:20:37.171Z,89.71
2023-01-13T08:25:51.881Z,89.39
2023-01-13T08:28:24.859Z,89.10
2023-01-13T08:33:43.269Z,89.52
2023-01-13T08:36:19.437Z,89.61
2023-01-13T08:39:03.790Z,90.34
2023-01-13T08:42:08.961Z,89.61
2023-01-13T08:45:03.906Z,89.53
2023-01-13T08:47:53.078Z,90.13
2023-01-13T08:50:51.083Z,89.79
2023-01-13T08:53:57.240Z,90.13
2023-01-13T08:56:54.417Z,90.13
2023-01-13T08:59:50.544Z,89.62
2023-01-13T09:05:17.695Z,90.24
2023-01-13T09:08:11.279Z,89.79
2023-01-13T09:11:29.121Z,89.92
2023-01-13T09:17:41.585Z,89.79
2023-01-13T09:20:49.111Z,89.98
2023-01-13T09:23:45.297Z,90.00
2023-01-13T09:26:46.205Z,90.88
2023-01-13T09:29:29.378Z,90.54
2023-01-13T09:35:04.787Z,90.25
2023-01-13T09:37:57.676Z,91.07
2023-01-13T09:40:26.730Z,91.15
2023-01-13T09:43:21.084Z,91.37
2023-01-13T09:46:07.590Z,91.36
2023-01-13T09:48:56.619Z,91.71
2023-01-13T09:51:35.358Z,91.06
2023-01-13T09:54:20.084Z,91.80
2023-01-13T09:59:55.022Z,91.95
2023-01-13T10:02:55.444Z,91.48
2023-01-13T10:05:43.660Z,91.50
2023-01-13T10:12:03.340Z,92.23
2023-01-13T10:18:25.027Z,92.09
2023-01-13T10:21:52.995Z,91.88
2023-01-13T10:28:44.383Z,92.81
2023-01-13T10:31:26.137Z,92.93
2023-01-13T10:38:09.310Z,93.62
2023-01-13T10:41:03.101Z,93.38
2023-01-13T10:44:02.511Z,93.66
2023-01-13T10:47:12.359Z,93.51
2023-01-13T10:50:45.213Z,93.17
2023-01-13T10:54:17.688Z,93.24
2023-01-13T10:57:01.018Z,94.01
2023-01-13T11:00:04.383Z,93.81
2023-01-13T11:02:49.995Z,93.61
2023-01-13T11:06:00.476Z,93.92
2023-01-13T11:08:48.024Z,93.17
2023-01-13T11:11:58.497Z,93.34
2023-01-13T11:15:20.230Z,93.80
2023-01-13T11:18:08.150Z,93.91
2023-01-13T11:21:03.778Z,93.65
2023-01-13T11:23:51.509Z,93.41
2023-01-13T11:26:50.123Z,93.70
2023-01-13T11:30:08.478Z,93.95
2023-01-13T11:32:59.102Z,93.80
2023-01-13T11:35:41.358Z,93.66
2023-01-13T11:38:47.919Z,93.52
2023-01-13T11:42:39.227Z,94.15
2023-01-13T11:45:33.008Z,93.71
2023-01-13T11:52:16.079Z,94.11
2023-01-13T11:55:31.438Z,93.51
2023-01-13T11:58:50.816Z,93.09
2023-01-13T12:02:04.636Z,93.58
2023-01-13T12:04:56.393Z,93.79
2023-01-13T12:07:59.793Z,93.84
2023-01-13T12:11:06.426Z,93.31
2023-01-13T12:14:06.210Z,93.33
2023-01-13T12:16:54.231Z,92.65
2023-01-13T12:19:42.650Z,93.54
2023-01-13T12:22:27.983Z,93.51
2023-01-13T12:25:13.676Z,93.03
2023-01-13T12:27:57.909Z,93.19
2023-01-13T12:31:11.450Z,92.80
2023-01-13T12:35:06.880Z,92.99
2023-01-13T12:38:11.387Z,92.30
2023-01-13T12:41:17.340Z,92.68
2023-01-13T12:48:05.283Z,92.73
2023-01-13T12:51:29.405Z,92.03
2023-01-13T13:02:10.188Z,92.39
2023-01-13T13:06:18.776Z,91.89
2023-01-13T13:09:49.099Z,91.36
2023-01-13T13:13:23.818Z,91.53
2023-01-13T13:16:48.483Z,91.42
2023-01-13T13:23:29.983Z,89.95
2023-01-13T13:26:44.880Z,90.12
2023-01-13T13:29:56.027Z,87.81
2023-01-13T13:33:23.152Z,89.27
2023-01-13T13:36:17.227Z,89.40
2023-01-13T13:40:14.165Z,89.66
2023-01-13T13:43:13.232Z,89.30
2023-01-13T13:47:09.163Z,89.44
2023-01-13T13:57:18.181Z,87.75
2023-01-13T14:00:17.768Z,86.67
2023-01-13T14:03:22.457Z,87.00
2023-01-13T14:06:45.600Z,86.22
2023-01-13T14:09:53.255Z,86.53
2023-01-13T14:13:15.459Z,85.90
2023-01-13T14:16:11.078Z,85.52
2023-01-13T14:19:27.952Z,84.85
2023-01-13T14:22:27.420Z,85.27
2023-01-13T14:28:55.826Z,84.72
2023-01-13T14:35:04.295Z,85.86
2023-01-13T14:38:18.027Z,86.58
2023-01-13T14:44:37.303Z,87.60
2023-01-13T14:48:05.592Z,87.55
2023-01-13T14:51:16.598Z,87.59
2023-01-13T14:54:07.716Z,88.14
2023-01-13T14:57:02.188Z,88.07
2023-01-13T15:00:02.953Z,87.91
2023-01-13T15:02:58.568Z,88.48
2023-01-13T15:09:00.899Z,88.15
2023-01-13T15:12:50.517Z,88.17
2023-01-13T15:16:05.120Z,88.52
2023-01-13T15:19:41.177Z,88.05
2023-01-13T15:22:58.417Z,88.67
2023-01-13T15:26:01.070Z,88.11
2023-01-13T15:28:50.050Z,88.43
2023-01-13T15:31:59.332Z,87.65
2023-01-13T15:35:28.427Z,88.71
2023-01-13T15:38:09.684Z,88.80
2023-01-13T15:48:10.826Z,89.17
2023-01-13T15:51:03.564Z,89.16
2023-01-13T15:54:06.476Z,88.16
2023-01-13T15:57:30.506Z,88.41
2023-01-13T16:00:53.271Z,87.38
2023-01-13T16:04:27.956Z,87.66
2023-01-13T16:07:33.394Z,87.41
2023-01-13T16:10:20.547Z,86.56
2023-01-13T16:13:31.714Z,86.66
2023-01-13T16:16:24.109Z,85.85
2023-01-13T16:26:33.221Z,85.92
2023-01-13T16:29:19.749Z,86.03
2023-01-13T16:31:55.789Z,86.09
2023-01-13T16:34:28.485Z,86.48
2023-01-13T16:36:57.409Z,86.06
2023-01-13T16:39:28.856Z,86.69
2023-01-13T16:42:16.230Z,85.68
2023-01-13T16:45:42.152Z,86.43
2023-01-13T16:48:44.301Z,87.26
2023-01-13T16:52:12.016Z,87.08
2023-01-13T16:59:44.230Z,87.95
2023-01-13T17:06:35.149Z,87.85
2023-01-13T17:09:22.555Z,88.95
2023-01-13T17:12:08.754Z,88.51
2023-01-13T17:14:54.286Z,89.23
2023-01-13T17:17:28.033Z,89.46
2023-01-13T17:20:03.157Z,89.35
2023-01-13T17:22:47.489Z,90.25
2023-01-13T17:25:44.858Z,90.02
2023-01-13T17:29:01.020Z,90.24
2023-01-13T17:32:05.274Z,91.05
2023-01-13T17:34:54.032Z,90.79
2023-01-13T17:37:52.221Z,91.10
2023-01-13T17:41:03.317Z,91.45
2023-01-13T17:43:39.229Z,91.37
2023-01-13T17:47:09.668Z,90.98
2023-01-13T17:49:50.326Z,91.76
2023-01-13T17:52:30.262Z,91.81
2023-01-13T17:55:38.879Z,91.24
2023-01-13T17:58:12.718Z,92.10
2023-01-13T18:00:49.209Z,92.00
2023-01-13T18:03:28.461Z,92.63
2023-01-13T18:06:19.467Z,92.57
2023-01-13T18:09:01.328Z,92.79
2023-01-13T18:11:52.681Z,92.36
2023-01-13T18:14:32.179Z,92.29
2023-01-13T18:17:26.204Z,92.03
2023-01-13T18:20:29.660Z,92.61
2023-01-13T18:23:45.450Z,92.57
2023-01-13T18:26:45.129Z,92.60
2023-01-13T18:29:40.690Z,92.72
2023-01-13T18:32:21.825Z,92.41
2023-01-13T18:35:05.279Z,93.07
2023-01-13T18:37:54.786Z,93.21
2023-01-13T18:40:29.591Z,93.06
2023-01-13T18:43:01.789Z,92.34
2023-01-13T18:45:45.066Z,92.35
2023-01-13T18:48:15.104Z,91.71
2023-01-13T18:50:46.727Z,93.22
2023-01-13T18:53:17.643Z,92.62
2023-01-13T18:55:51.503Z,92.57
2023-01-13T18:58:30.178Z,92.49
2023-01-13T19:01:03.648Z,92.95
2023-01-13T19:03:32.676Z,92.95
2023-01-13T19:06:09.224Z,92.36
2023-01-13T19:08:41.748Z,91.88
2023-01-13T19:11:12.440Z,91.35
2023-01-13T19:13:42.358Z,91.61
2023-01-13T19:16:14.421Z,90.82
2023-01-13T19:18:43.158Z,90.79
2023-01-13T19:21:13.519Z,90.00
2023-01-13T19:23:45.041Z,89.97
2023-01-13T19:26:14.735Z,90.03
2023-01-13T19:28:44.878Z,89.75
2023-01-13T19:31:17.232Z,90.04
2023-01-13T19:33:47.424Z,89.75
2023-01-13T19:36:15.924Z,90.19
2023-01-13T19:38:46.105Z,89.76
2023-01-13T19:41:35.060Z,88.91
2023-01-13T19:44:20.822Z,89.42
2023-01-13T19:46:49.368Z,88.85
2023-01-13T19:49:25.593Z,88.52
2023-01-13T19:52:01.334Z,88.48
2023-01-13T19:54:32.754Z,87.76
2023-01-13T19:57:25.252Z,88.10
2023-01-13T19:59:54.961Z,88.32
2023-01-13T20:02:41.054Z,88.16
2023-01-13T20:08:08.922Z,88.25
2023-01-13T20:11:20.869Z,87.97
2023-01-13T20:13:52.587Z,87.89
2023-01-13T20:16:24.243Z,88.51
2023-01-13T20:19:06.468Z,88.74
2023-01-13T20:21:49.833Z,89.62
2023-01-13T20:27:25.096Z,89.36
2023-01-13T20:29:57.717Z,90.34
2023-01-13T20:32:43.752Z,90.54
2023-01-13T20:35:49.799Z,90.93
2023-01-13T20:38:44.470Z,90.30
2023-01-13T20:41:33.032Z,91.00
2023-01-13T20:44:04.196Z,90.40
2023-01-13T20:46:49.278Z,91.53
2023-01-13T20:49:20.517Z,90.60
2023-01-13T20:52:31.895Z,91.40
2023-01-13T20:55:03.058Z,91.70
2023-01-13T20:57:42.266Z,91.11
2023-01-13T21:00:40.289Z,91.76
2023-01-13T21:03:22.401Z,91.52
2023-01-13T21:05:53.783Z,92.03
2023-01-13T21:08:49.835Z,91.96
2023-01-13T21:15:10.931Z,91.85
2023-01-13T21:18:07.476Z,92.48
2023-01-13T21:20:45.326Z,92.11
2023-01-13T21:23:15.802Z,92.05
2023-01-13T21:25:46.764Z,92.14
2023-01-13T21:28:22.460Z,92.72
2023-01-13T21:30:54.155Z,92.20
2023-01-13T21:33:30.114Z,92.82
2023-01-13T21:36:06.941Z,92.76
2023-01-13T21:38:42.974Z,92.26
2023-01-13T21:41:37.163Z,92.80
2023-01-13T21:44:28.357Z,92.37
2023-01-13T21:47:19.696Z,93.00
2023-01-13T21:49:59.896Z,93.38
2023-01-13T21:52:39.328Z,92.59
2023-01-13T21:55:43.991Z,92.70
2023-01-13T21:58:34.310Z,92.46
2023-01-13T22:07:26.192Z,93.21
2023-01-13T22:09:59.780Z,92.70
2023-01-13T22:12:29.811Z,92.92
2023-01-13T22:14:58.663Z,93.08
2023-01-13T22:17:32.522Z,93.20
2023-01-13T22:20:02.545Z,93.06
2023-01-13T22:22:44.510Z,93.41
2023-01-13T22:25:20.414Z,93.45
2023-01-13T22:27:54.217Z,93.33
2023-01-13T22:30:51.333Z,93.12
2023-01-13T22:33:40.407Z,93.24
2023-01-13T22:39:08.230Z,93.74
2023-01-13T22:41:45.622Z,93.76
2023-01-13T22:44:15.787Z,93.89
2023-01-13T22:46:53.108Z,93.56
2023-01-13T22:49:23.192Z,94.22
2023-01-13T22:51:52.531Z,93.10
2023-01-13T22:54:23.416Z,93.63
2023-01-13T22:57:03.813Z,94.05
2023-01-13T22:59:33.425Z,93.40
2023-01-13T23:02:07.282Z,94.18
2023-01-13T23:04:51.270Z,94.29
2023-01-13T23:07:45.735Z,94.22
2023-01-13T23:10:25.485Z,93.92
2023-01-13T23:12:56.930Z,94.03
2023-01-13T23:18:11.502Z,94.19
2023-01-13T23:20:40.385Z,94.18
2023-01-13T23:26:33.727Z,94.03
2023-01-13T23:31:56.229Z,93.92
2023-01-13T23:34:27.052Z,93.75
2023-01-13T23:36:55.676Z,93.80
2023-01-13T23:39:35.240Z,93.64
2023-01-13T23:42:37.997Z,93.76
2023-01-13T23:45:19.006Z,93.59
2023-01-13T23:48:03.918Z,94.25
